sensor_id;sensor_type;location;lat;lon;timestamp;P1;P2;P0
28647;PMS5003;17137;51.494;-0.262;2023-08-01T00:00:06;0;0;
28647;PMS5003;17137;51.494;-0.262;2023-08-01T00:00:37;0;0;
28647;PMS5003;17137;51.494;-0.262;2023-08-01T00:01:08;0;0;
28647;PMS5003;17137;51.494;-0.262;2023-08-01T00:01:38;1;1;
28647;PMS5003;17137;51.494;-0.262;2023-08-01T00:02:08;1;1;
28647;PMS5003;17137;51.494;-0.262;2023-08-01T00:02:44;1;1;
28647;PMS5003;17137;51.494;-0.262;2023-08-01T00:03:14;1;1;
28647;PMS5003;17137;51.494;-0.262;2023-08-01T00:03:44;1;1;
28647;PMS5003;17137;51.494;-0.262;2023-08-01T00:04:14;1;1;
28647;PMS5003;17137;51.494;-0.262;2023-08-01T00:04:45;1;1;
28647;PMS5003;17137;51.494;-0.262;2023-08-01T00:05:15;1;1;
28647;PMS5003;17137;51.494;-0.262;2023-08-01T00:05:45;1;1;
28647;PMS5003;17137;51.494;-0.262;2023-08-01T00:06:16;1;1;
28647;PMS5003;17137;51.494;-0.262;2023-08-01T00:06:46;2;2;
28647;PMS5003;17137;51.494;-0.262;2023-08-01T00:07:16;2;2;
28647;PMS5003;17137;51.494;-0.262;2023-08-01T00:07:46;2;2;
28647;PMS5003;17137;51.494;-0.262;2023-08-01T00:08:17;1;1;
28647;PMS5003;17137;51.494;-0.262;2023-08-01T00:08:47;1;1;
28647;PMS5003;17137;51.494;-0.262;2023-08-01T00:09:17;1;1;
28647;PMS5003;17137;51.494;-0.262;2023-08-01T00:09:48;2;2;
28647;PMS5003;17137;51.494;-0.262;2023-08-01T00:10:18;2;2;
28647;PMS5003;17137;51.494;-0.262;2023-08-01T00:10:49;2;2;
28647;PMS5003;17137;51.494;-0.262;2023-08-01T00:11:19;2;2;
28647;PMS5003;17137;51.494;-0.262;2023-08-01T00:11:50;2;2;
28647;PMS5003;17137;51.494;-0.262;2023-08-01T00:12:20;2;2;
28647;PMS5003;17137;51.494;-0.262;2023-08-01T00:12:51;2;2;
28647;PMS5003;17137;51.494;-0.262;2023-08-01T00:13:21;2;2;
28647;PMS5003;17137;51.494;-0.262;2023-08-01T00:13:51;2;2;
28647;PMS5003;17137;51.494;-0.262;2023-08-01T00:14:22;2;2;
28647;PMS5003;17137;51.494;-0.262;2023-08-01T00:14:52;4;2;
28647;PMS5003;17137;51.494;-0.262;2023-08-01T00:15:22;4;2;
28647;PMS5003;17137;51.494;-0.262;2023-08-01T00:15:53;3;1;
28647;PMS5003;17137;51.494;-0.262;2023-08-01T00:16:23;3;1;
28647;PMS5003;17137;51.494;-0.262;2023-08-01T00:16:53;3;1;
28647;PMS5003;17137;51.494;-0.262;2023-08-01T00:17:24;4;2;
28647;PMS5003;17137;51.494;-0.262;2023-08-01T00:17:54;4;2;
28647;PMS5003;17137;51.494;-0.262;2023-08-01T00:18:24;4;2;
28647;PMS5003;17137;51.494;-0.262;2023-08-01T00:18:54;4;2;
28647;PMS5003;17137;51.494;-0.262;2023-08-01T00:19:25;4;2;
28647;PMS5003;17137;51.494;-0.262;2023-08-01T00:19:57;4;2;
28647;PMS5003;17137;51.494;-0.262;2023-08-01T00:20:27;4;2;
28647;PMS5003;17137;51.494;-0.262;2023-08-01T00:20:57;4;2;
28647;PMS5003;17137;51.494;-0.262;2023-08-01T00:21:28;4;2;
28647;PMS5003;17137;51.494;-0.262;2023-08-01T00:21:58;4;2;
28647;PMS5003;17137;51.494;-0.262;2023-08-01T00:22:28;4;2;
28647;PMS5003;17137;51.494;-0.262;2023-08-01T00:22:59;2;2;
28647;PMS5003;17137;51.494;-0.262;2023-08-01T00:23:29;2;2;
28647;PMS5003;17137;51.494;-0.262;2023-08-01T00:23:59;3;2;
28647;PMS5003;17137;51.494;-0.262;2023-08-01T00:24:30;3;2;
28647;PMS5003;17137;51.494;-0.262;2023-08-01T00:25:00;3;2;
28647;PMS5003;17137;51.494;-0.262;2023-08-01T00:25:30;2;2;
28647;PMS5003;17137;51.494;-0.262;2023-08-01T00:26:01;2;2;
28647;PMS5003;17137;51.494;-0.262;2023-08-01T00:26:31;2;2;
28647;PMS5003;17137;51.494;-0.262;2023-08-01T00:27:02;2;2;
28647;PMS5003;17137;51.494;-0.262;2023-08-01T00:27:32;2;2;
28647;PMS5003;17137;51.494;-0.262;2023-08-01T00:28:03;2;2;
28647;PMS5003;17137;51.494;-0.262;2023-08-01T00:28:33;2;2;
28647;PMS5003;17137;51.494;-0.262;2023-08-01T00:29:04;2;2;
28647;PMS5003;17137;51.494;-0.262;2023-08-01T00:29:34;2;2;
28647;PMS5003;17137;51.494;-0.262;2023-08-01T00:30:05;1;1;
28647;PMS5003;17137;51.494;-0.262;2023-08-01T00:30:37;1;1;
28647;PMS5003;17137;51.494;-0.262;2023-08-01T00:31:08;2;2;
28647;PMS5003;17137;51.494;-0.262;2023-08-01T00:31:38;2;2;
28647;PMS5003;17137;51.494;-0.262;2023-08-01T00:32:08;2;2;
28647;PMS5003;17137;51.494;-0.262;2023-08-01T00:32:39;2;2;
28647;PMS5003;17137;51.494;-0.262;2023-08-01T00:33:09;2;2;
28647;PMS5003;17137;51.494;-0.262;2023-08-01T00:33:40;2;2;
28647;PMS5003;17137;51.494;-0.262;2023-08-01T00:34:10;2;2;
28647;PMS5003;17137;51.494;-0.262;2023-08-01T00:34:40;2;2;
28647;PMS5003;17137;51.494;-0.262;2023-08-01T00:35:10;3;3;
28647;PMS5003;17137;51.494;-0.262;2023-08-01T00:35:41;3;3;
28647;PMS5003;17137;51.494;-0.262;2023-08-01T00:36:11;4;4;
28647;PMS5003;17137;51.494;-0.262;2023-08-01T00:36:41;4;4;
28647;PMS5003;17137;51.494;-0.262;2023-08-01T00:37:12;4;4;
28647;PMS5003;17137;51.494;-0.262;2023-08-01T00:37:42;4;4;
28647;PMS5003;17137;51.494;-0.262;2023-08-01T00:38:12;4;4;
28647;PMS5003;17137;51.494;-0.262;2023-08-01T00:38:43;4;4;
28647;PMS5003;17137;51.494;-0.262;2023-08-01T00:39:13;1;1;
28647;PMS5003;17137;51.494;-0.262;2023-08-01T00:39:44;1;1;
28647;PMS5003;17137;51.494;-0.262;2023-08-01T00:40:14;1;1;
28647;PMS5003;17137;51.494;-0.262;2023-08-01T00:40:45;1;1;
28647;PMS5003;17137;51.494;-0.262;2023-08-01T00:41:15;2;2;
28647;PMS5003;17137;51.494;-0.262;2023-08-01T00:41:45;2;2;
28647;PMS5003;17137;51.494;-0.262;2023-08-01T00:42:16;2;2;
28647;PMS5003;17137;51.494;-0.262;2023-08-01T00:42:46;2;2;
28647;PMS5003;17137;51.494;-0.262;2023-08-01T00:43:16;2;2;
28647;PMS5003;17137;51.494;-0.262;2023-08-01T00:43:47;2;2;
28647;PMS5003;17137;51.494;-0.262;2023-08-01T00:44:17;3;3;
28647;PMS5003;17137;51.494;-0.262;2023-08-01T00:44:48;3;3;
28647;PMS5003;17137;51.494;-0.262;2023-08-01T00:45:18;3;3;
28647;PMS5003;17137;51.494;-0.262;2023-08-01T00:45:48;3;3;
28647;PMS5003;17137;51.494;-0.262;2023-08-01T00:46:25;3;3;
28647;PMS5003;17137;51.494;-0.262;2023-08-01T00:46:55;3;3;
28647;PMS5003;17137;51.494;-0.262;2023-08-01T00:47:26;3;3;
28647;PMS5003;17137;51.494;-0.262;2023-08-01T00:47:56;3;3;
28647;PMS5003;17137;51.494;-0.262;2023-08-01T00:48:27;3;3;
28647;PMS5003;17137;51.494;-0.262;2023-08-01T00:48:57;3;3;
28647;PMS5003;17137;51.494;-0.262;2023-08-01T00:49:28;3;3;
28647;PMS5003;17137;51.494;-0.262;2023-08-01T00:49:58;3;3;
28647;PMS5003;17137;51.494;-0.262;2023-08-01T00:50:29;3;3;
28647;PMS5003;17137;51.494;-0.262;2023-08-01T00:51:00;3;3;
28647;PMS5003;17137;51.494;-0.262;2023-08-01T00:51:33;3;3;
28647;PMS5003;17137;51.494;-0.262;2023-08-01T00:52:05;3;3;
28647;PMS5003;17137;51.494;-0.262;2023-08-01T00:52:36;3;3;
28647;PMS5003;17137;51.494;-0.262;2023-08-01T00:53:06;3;3;
28647;PMS5003;17137;51.494;-0.262;2023-08-01T00:53:36;3;3;
28647;PMS5003;17137;51.494;-0.262;2023-08-01T00:54:07;3;3;
28647;PMS5003;17137;51.494;-0.262;2023-08-01T00:54:38;3;3;
28647;PMS5003;17137;51.494;-0.262;2023-08-01T00:55:08;3;3;
28647;PMS5003;17137;51.494;-0.262;2023-08-01T00:55:38;4;4;
28647;PMS5003;17137;51.494;-0.262;2023-08-01T00:56:09;4;4;
28647;PMS5003;17137;51.494;-0.262;2023-08-01T00:56:39;3;3;
28647;PMS5003;17137;51.494;-0.262;2023-08-01T00:57:09;3;3;
28647;PMS5003;17137;51.494;-0.262;2023-08-01T00:57:40;3;3;
28647;PMS5003;17137;51.494;-0.262;2023-08-01T00:58:10;4;4;
28647;PMS5003;17137;51.494;-0.262;2023-08-01T00:58:41;4;4;
28647;PMS5003;17137;51.494;-0.262;2023-08-01T00:59:11;4;4;
28647;PMS5003;17137;51.494;-0.262;2023-08-01T00:59:42;3;3;
28647;PMS5003;17137;51.494;-0.262;2023-08-01T01:00:13;3;3;
28647;PMS5003;17137;51.494;-0.262;2023-08-01T01:00:43;2;2;
28647;PMS5003;17137;51.494;-0.262;2023-08-01T01:01:14;3;3;
28647;PMS5003;17137;51.494;-0.262;2023-08-01T01:01:45;3;3;
28647;PMS5003;17137;51.494;-0.262;2023-08-01T01:02:15;4;4;
28647;PMS5003;17137;51.494;-0.262;2023-08-01T01:02:46;4;4;
28647;PMS5003;17137;51.494;-0.262;2023-08-01T01:03:16;4;4;
28647;PMS5003;17137;51.494;-0.262;2023-08-01T01:03:47;4;4;
28647;PMS5003;17137;51.494;-0.262;2023-08-01T01:04:18;3;3;
28647;PMS5003;17137;51.494;-0.262;2023-08-01T01:04:53;3;3;
28647;PMS5003;17137;51.494;-0.262;2023-08-01T01:05:24;3;3;
28647;PMS5003;17137;51.494;-0.262;2023-08-01T01:06:00;4;4;
28647;PMS5003;17137;51.494;-0.262;2023-08-01T01:06:37;4;4;
28647;PMS5003;17137;51.494;-0.262;2023-08-01T01:07:11;4;4;
28647;PMS5003;17137;51.494;-0.262;2023-08-01T01:07:42;4;4;
28647;PMS5003;17137;51.494;-0.262;2023-08-01T01:08:13;3;3;
28647;PMS5003;17137;51.494;-0.262;2023-08-01T01:08:44;3;3;
28647;PMS5003;17137;51.494;-0.262;2023-08-01T01:09:15;3;3;
28647;PMS5003;17137;51.494;-0.262;2023-08-01T01:09:45;3;3;
28647;PMS5003;17137;51.494;-0.262;2023-08-01T01:10:15;3;3;
28647;PMS5003;17137;51.494;-0.262;2023-08-01T01:10:46;3;3;
28647;PMS5003;17137;51.494;-0.262;2023-08-01T01:11:16;3;3;
28647;PMS5003;17137;51.494;-0.262;2023-08-01T01:11:46;3;3;
28647;PMS5003;17137;51.494;-0.262;2023-08-01T01:12:17;5;5;
28647;PMS5003;17137;51.494;-0.262;2023-08-01T01:12:47;5;5;
28647;PMS5003;17137;51.494;-0.262;2023-08-01T01:13:17;5;5;
28647;PMS5003;17137;51.494;-0.262;2023-08-01T01:13:47;5;5;
28647;PMS5003;17137;51.494;-0.262;2023-08-01T01:14:18;5;5;
28647;PMS5003;17137;51.494;-0.262;2023-08-01T01:14:48;5;5;
28647;PMS5003;17137;51.494;-0.262;2023-08-01T01:15:18;5;5;
28647;PMS5003;17137;51.494;-0.262;2023-08-01T01:15:49;5;5;
28647;PMS5003;17137;51.494;-0.262;2023-08-01T01:16:19;5;5;
28647;PMS5003;17137;51.494;-0.262;2023-08-01T01:16:50;5;5;
28647;PMS5003;17137;51.494;-0.262;2023-08-01T01:17:21;4;4;
28647;PMS5003;17137;51.494;-0.262;2023-08-01T01:17:51;4;4;
28647;PMS5003;17137;51.494;-0.262;2023-08-01T01:18:21;4;4;
28647;PMS5003;17137;51.494;-0.262;2023-08-01T01:18:52;4;4;
28647;PMS5003;17137;51.494;-0.262;2023-08-01T01:19:22;4;4;
28647;PMS5003;17137;51.494;-0.262;2023-08-01T01:19:52;4;4;
28647;PMS5003;17137;51.494;-0.262;2023-08-01T01:20:23;4;4;
28647;PMS5003;17137;51.494;-0.262;2023-08-01T01:20:53;4;4;
28647;PMS5003;17137;51.494;-0.262;2023-08-01T01:21:24;4;4;
28647;PMS5003;17137;51.494;-0.262;2023-08-01T01:21:54;4;4;
28647;PMS5003;17137;51.494;-0.262;2023-08-01T01:22:25;4;4;
28647;PMS5003;17137;51.494;-0.262;2023-08-01T01:22:57;4;3;
28647;PMS5003;17137;51.494;-0.262;2023-08-01T01:23:27;4;3;
28647;PMS5003;17137;51.494;-0.262;2023-08-01T01:23:58;4;3;
28647;PMS5003;17137;51.494;-0.262;2023-08-01T01:24:29;3;3;
28647;PMS5003;17137;51.494;-0.262;2023-08-01T01:25:01;3;3;
28647;PMS5003;17137;51.494;-0.262;2023-08-01T01:25:32;3;3;
28647;PMS5003;17137;51.494;-0.262;2023-08-01T01:26:04;3;3;
28647;PMS5003;17137;51.494;-0.262;2023-08-01T01:26:37;3;3;
28647;PMS5003;17137;51.494;-0.262;2023-08-01T01:27:09;3;3;
28647;PMS5003;17137;51.494;-0.262;2023-08-01T01:27:41;3;3;
28647;PMS5003;17137;51.494;-0.262;2023-08-01T01:28:12;3;3;
28647;PMS5003;17137;51.494;-0.262;2023-08-01T01:28:44;5;5;
28647;PMS5003;17137;51.494;-0.262;2023-08-01T01:29:15;5;5;
28647;PMS5003;17137;51.494;-0.262;2023-08-01T01:29:45;5;5;
28647;PMS5003;17137;51.494;-0.262;2023-08-01T01:30:18;5;5;
28647;PMS5003;17137;51.494;-0.262;2023-08-01T01:30:49;5;5;
28647;PMS5003;17137;51.494;-0.262;2023-08-01T01:31:20;5;5;
28647;PMS5003;17137;51.494;-0.262;2023-08-01T01:31:51;4;4;
28647;PMS5003;17137;51.494;-0.262;2023-08-01T01:32:23;4;4;
28647;PMS5003;17137;51.494;-0.262;2023-08-01T01:32:54;4;4;
28647;PMS5003;17137;51.494;-0.262;2023-08-01T01:33:25;4;4;
28647;PMS5003;17137;51.494;-0.262;2023-08-01T01:33:56;4;4;
28647;PMS5003;17137;51.494;-0.262;2023-08-01T01:34:27;4;4;
28647;PMS5003;17137;51.494;-0.262;2023-08-01T01:34:58;4;4;
28647;PMS5003;17137;51.494;-0.262;2023-08-01T01:35:28;4;4;
28647;PMS5003;17137;51.494;-0.262;2023-08-01T01:36:00;4;4;
28647;PMS5003;17137;51.494;-0.262;2023-08-01T01:36:30;4;4;
28647;PMS5003;17137;51.494;-0.262;2023-08-01T01:37:01;4;4;
28647;PMS5003;17137;51.494;-0.262;2023-08-01T01:37:31;4;4;
28647;PMS5003;17137;51.494;-0.262;2023-08-01T01:38:01;4;4;
28647;PMS5003;17137;51.494;-0.262;2023-08-01T01:38:32;4;4;
28647;PMS5003;17137;51.494;-0.262;2023-08-01T01:39:02;4;4;
28647;PMS5003;17137;51.494;-0.262;2023-08-01T01:39:33;4;4;
28647;PMS5003;17137;51.494;-0.262;2023-08-01T01:40:03;4;4;
28647;PMS5003;17137;51.494;-0.262;2023-08-01T01:40:34;4;4;
28647;PMS5003;17137;51.494;-0.262;2023-08-01T01:41:05;4;4;
28647;PMS5003;17137;51.494;-0.262;2023-08-01T01:41:35;4;4;
28647;PMS5003;17137;51.494;-0.262;2023-08-01T01:42:06;4;4;
28647;PMS5003;17137;51.494;-0.262;2023-08-01T01:42:36;4;4;
28647;PMS5003;17137;51.494;-0.262;2023-08-01T01:43:07;4;4;
28647;PMS5003;17137;51.494;-0.262;2023-08-01T01:43:37;4;4;
28647;PMS5003;17137;51.494;-0.262;2023-08-01T01:44:07;4;4;
28647;PMS5003;17137;51.494;-0.262;2023-08-01T01:44:37;4;4;
28647;PMS5003;17137;51.494;-0.262;2023-08-01T01:45:08;4;4;
28647;PMS5003;17137;51.494;-0.262;2023-08-01T01:45:39;4;4;
28647;PMS5003;17137;51.494;-0.262;2023-08-01T01:46:09;4;4;
28647;PMS5003;17137;51.494;-0.262;2023-08-01T01:46:39;4;4;
28647;PMS5003;17137;51.494;-0.262;2023-08-01T01:47:10;4;4;
28647;PMS5003;17137;51.494;-0.262;2023-08-01T01:47:40;4;4;
28647;PMS5003;17137;51.494;-0.262;2023-08-01T01:48:10;4;4;
28647;PMS5003;17137;51.494;-0.262;2023-08-01T01:48:41;4;4;
28647;PMS5003;17137;51.494;-0.262;2023-08-01T01:49:11;4;4;
28647;PMS5003;17137;51.494;-0.262;2023-08-01T01:49:41;4;4;
28647;PMS5003;17137;51.494;-0.262;2023-08-01T01:50:12;4;4;
28647;PMS5003;17137;51.494;-0.262;2023-08-01T01:50:42;4;4;
28647;PMS5003;17137;51.494;-0.262;2023-08-01T01:51:12;3;3;
28647;PMS5003;17137;51.494;-0.262;2023-08-01T01:51:43;3;3;
28647;PMS5003;17137;51.494;-0.262;2023-08-01T01:52:13;3;3;
28647;PMS5003;17137;51.494;-0.262;2023-08-01T01:52:43;4;4;
28647;PMS5003;17137;51.494;-0.262;2023-08-01T01:53:14;5;4;
28647;PMS5003;17137;51.494;-0.262;2023-08-01T01:53:44;5;4;
28647;PMS5003;17137;51.494;-0.262;2023-08-01T01:54:15;5;3;
28647;PMS5003;17137;51.494;-0.262;2023-08-01T01:54:50;4;2;
28647;PMS5003;17137;51.494;-0.262;2023-08-01T01:55:21;4;2;
28647;PMS5003;17137;51.494;-0.262;2023-08-01T01:55:51;4;3;
28647;PMS5003;17137;51.494;-0.262;2023-08-01T01:56:21;5;4;
28647;PMS5003;17137;51.494;-0.262;2023-08-01T01:56:52;5;4;
28647;PMS5003;17137;51.494;-0.262;2023-08-01T01:57:22;6;4;
28647;PMS5003;17137;51.494;-0.262;2023-08-01T01:57:52;6;4;
28647;PMS5003;17137;51.494;-0.262;2023-08-01T01:58:23;5;3;
28647;PMS5003;17137;51.494;-0.262;2023-08-01T01:58:53;5;4;
28647;PMS5003;17137;51.494;-0.262;2023-08-01T01:59:23;5;4;
28647;PMS5003;17137;51.494;-0.262;2023-08-01T01:59:53;6;5;
28647;PMS5003;17137;51.494;-0.262;2023-08-01T02:00:24;6;5;
28647;PMS5003;17137;51.494;-0.262;2023-08-01T02:00:54;6;5;
28647;PMS5003;17137;51.494;-0.262;2023-08-01T02:01:24;7;5;
28647;PMS5003;17137;51.494;-0.262;2023-08-01T02:01:55;7;5;
28647;PMS5003;17137;51.494;-0.262;2023-08-01T02:02:25;7;5;
28647;PMS5003;17137;51.494;-0.262;2023-08-01T02:02:55;7;5;
28647;PMS5003;17137;51.494;-0.262;2023-08-01T02:03:25;7;5;
28647;PMS5003;17137;51.494;-0.262;2023-08-01T02:03:56;7;5;
28647;PMS5003;17137;51.494;-0.262;2023-08-01T02:04:26;7;5;
28647;PMS5003;17137;51.494;-0.262;2023-08-01T02:04:56;7;5;
28647;PMS5003;17137;51.494;-0.262;2023-08-01T02:05:27;5;4;
28647;PMS5003;17137;51.494;-0.262;2023-08-01T02:05:57;5;4;
28647;PMS5003;17137;51.494;-0.262;2023-08-01T02:06:27;5;4;
28647;PMS5003;17137;51.494;-0.262;2023-08-01T02:06:58;4;4;
28647;PMS5003;17137;51.494;-0.262;2023-08-01T02:07:28;4;4;
28647;PMS5003;17137;51.494;-0.262;2023-08-01T02:07:58;4;4;
28647;PMS5003;17137;51.494;-0.262;2023-08-01T02:08:29;4;4;
28647;PMS5003;17137;51.494;-0.262;2023-08-01T02:09:00;4;4;
28647;PMS5003;17137;51.494;-0.262;2023-08-01T02:09:30;5;5;
28647;PMS5003;17137;51.494;-0.262;2023-08-01T02:10:00;5;5;
28647;PMS5003;17137;51.494;-0.262;2023-08-01T02:10:31;5;5;
28647;PMS5003;17137;51.494;-0.262;2023-08-01T02:11:01;5;5;
28647;PMS5003;17137;51.494;-0.262;2023-08-01T02:11:32;5;5;
28647;PMS5003;17137;51.494;-0.262;2023-08-01T02:12:02;5;5;
28647;PMS5003;17137;51.494;-0.262;2023-08-01T02:12:33;5;5;
28647;PMS5003;17137;51.494;-0.262;2023-08-01T02:13:03;6;6;
28647;PMS5003;17137;51.494;-0.262;2023-08-01T02:13:33;6;6;
28647;PMS5003;17137;51.494;-0.262;2023-08-01T02:14:04;6;6;
28647;PMS5003;17137;51.494;-0.262;2023-08-01T02:14:34;6;6;
28647;PMS5003;17137;51.494;-0.262;2023-08-01T02:15:05;6;6;
28647;PMS5003;17137;51.494;-0.262;2023-08-01T02:15:36;6;6;
28647;PMS5003;17137;51.494;-0.262;2023-08-01T02:16:06;6;6;
28647;PMS5003;17137;51.494;-0.262;2023-08-01T02:16:36;6;6;
28647;PMS5003;17137;51.494;-0.262;2023-08-01T02:17:07;6;6;
28647;PMS5003;17137;51.494;-0.262;2023-08-01T02:17:37;5;5;
28647;PMS5003;17137;51.494;-0.262;2023-08-01T02:18:08;5;5;
28647;PMS5003;17137;51.494;-0.262;2023-08-01T02:18:38;4;4;
28647;PMS5003;17137;51.494;-0.262;2023-08-01T02:19:08;4;4;
28647;PMS5003;17137;51.494;-0.262;2023-08-01T02:19:38;5;5;
28647;PMS5003;17137;51.494;-0.262;2023-08-01T02:20:09;5;5;
28647;PMS5003;17137;51.494;-0.262;2023-08-01T02:20:40;5;5;
28647;PMS5003;17137;51.494;-0.262;2023-08-01T02:21:10;4;4;
28647;PMS5003;17137;51.494;-0.262;2023-08-01T02:21:41;4;4;
28647;PMS5003;17137;51.494;-0.262;2023-08-01T02:22:11;4;4;
28647;PMS5003;17137;51.494;-0.262;2023-08-01T02:22:41;4;4;
28647;PMS5003;17137;51.494;-0.262;2023-08-01T02:23:11;4;4;
28647;PMS5003;17137;51.494;-0.262;2023-08-01T02:23:42;4;4;
28647;PMS5003;17137;51.494;-0.262;2023-08-01T02:24:12;4;4;
28647;PMS5003;17137;51.494;-0.262;2023-08-01T02:24:42;4;4;
28647;PMS5003;17137;51.494;-0.262;2023-08-01T02:25:13;4;4;
28647;PMS5003;17137;51.494;-0.262;2023-08-01T02:25:43;5;5;
28647;PMS5003;17137;51.494;-0.262;2023-08-01T02:26:13;5;5;
28647;PMS5003;17137;51.494;-0.262;2023-08-01T02:26:44;4;4;
28647;PMS5003;17137;51.494;-0.262;2023-08-01T02:27:14;4;4;
28647;PMS5003;17137;51.494;-0.262;2023-08-01T02:27:44;4;4;
28647;PMS5003;17137;51.494;-0.262;2023-08-01T02:28:14;4;4;
28647;PMS5003;17137;51.494;-0.262;2023-08-01T02:28:45;5;5;
28647;PMS5003;17137;51.494;-0.262;2023-08-01T02:29:15;5;5;
28647;PMS5003;17137;51.494;-0.262;2023-08-01T02:29:46;5;5;
28647;PMS5003;17137;51.494;-0.262;2023-08-01T02:30:16;4;4;
28647;PMS5003;17137;51.494;-0.262;2023-08-01T02:30:46;4;4;
28647;PMS5003;17137;51.494;-0.262;2023-08-01T02:31:17;4;4;
28647;PMS5003;17137;51.494;-0.262;2023-08-01T02:31:49;4;4;
28647;PMS5003;17137;51.494;-0.262;2023-08-01T02:32:19;4;4;
28647;PMS5003;17137;51.494;-0.262;2023-08-01T02:32:49;4;4;
28647;PMS5003;17137;51.494;-0.262;2023-08-01T02:33:20;4;4;
28647;PMS5003;17137;51.494;-0.262;2023-08-01T02:33:51;7;7;
28647;PMS5003;17137;51.494;-0.262;2023-08-01T02:34:21;7;7;
28647;PMS5003;17137;51.494;-0.262;2023-08-01T02:34:51;7;7;
28647;PMS5003;17137;51.494;-0.262;2023-08-01T02:35:22;7;7;
28647;PMS5003;17137;51.494;-0.262;2023-08-01T02:35:52;7;7;
28647;PMS5003;17137;51.494;-0.262;2023-08-01T02:36:22;7;7;
28647;PMS5003;17137;51.494;-0.262;2023-08-01T02:36:52;7;7;
28647;PMS5003;17137;51.494;-0.262;2023-08-01T02:37:23;6;6;
28647;PMS5003;17137;51.494;-0.262;2023-08-01T02:37:53;6;6;
28647;PMS5003;17137;51.494;-0.262;2023-08-01T02:38:24;6;6;
28647;PMS5003;17137;51.494;-0.262;2023-08-01T02:38:54;7;7;
28647;PMS5003;17137;51.494;-0.262;2023-08-01T02:39:29;7;7;
28647;PMS5003;17137;51.494;-0.262;2023-08-01T02:40:00;7;7;
28647;PMS5003;17137;51.494;-0.262;2023-08-01T02:40:32;6;6;
28647;PMS5003;17137;51.494;-0.262;2023-08-01T02:41:02;6;6;
28647;PMS5003;17137;51.494;-0.262;2023-08-01T02:41:33;6;6;
28647;PMS5003;17137;51.494;-0.262;2023-08-01T02:42:03;7;6;
28647;PMS5003;17137;51.494;-0.262;2023-08-01T02:42:33;7;6;
28647;PMS5003;17137;51.494;-0.262;2023-08-01T02:43:04;7;6;
28647;PMS5003;17137;51.494;-0.262;2023-08-01T02:43:39;7;5;
28647;PMS5003;17137;51.494;-0.262;2023-08-01T02:44:09;8;6;
28647;PMS5003;17137;51.494;-0.262;2023-08-01T02:44:40;8;6;
28647;PMS5003;17137;51.494;-0.262;2023-08-01T02:45:11;7;6;
28647;PMS5003;17137;51.494;-0.262;2023-08-01T02:45:41;6;5;
28647;PMS5003;17137;51.494;-0.262;2023-08-01T02:46:12;6;5;
28647;PMS5003;17137;51.494;-0.262;2023-08-01T02:46:42;5;4;
28647;PMS5003;17137;51.494;-0.262;2023-08-01T02:47:13;5;4;
28647;PMS5003;17137;51.494;-0.262;2023-08-01T02:47:43;5;4;
28647;PMS5003;17137;51.494;-0.262;2023-08-01T02:48:13;4;3;
28647;PMS5003;17137;51.494;-0.262;2023-08-01T02:48:43;4;3;
28647;PMS5003;17137;51.494;-0.262;2023-08-01T02:49:14;5;4;
28647;PMS5003;17137;51.494;-0.262;2023-08-01T02:49:44;5;4;
28647;PMS5003;17137;51.494;-0.262;2023-08-01T02:50:15;1;1;
28647;PMS5003;17137;51.494;-0.262;2023-08-01T02:50:45;2;2;
28647;PMS5003;17137;51.494;-0.262;2023-08-01T02:51:15;2;2;
28647;PMS5003;17137;51.494;-0.262;2023-08-01T02:51:46;2;2;
28647;PMS5003;17137;51.494;-0.262;2023-08-01T02:52:16;1;1;
28647;PMS5003;17137;51.494;-0.262;2023-08-01T02:52:46;1;1;
28647;PMS5003;17137;51.494;-0.262;2023-08-01T02:53:22;1;1;
28647;PMS5003;17137;51.494;-0.262;2023-08-01T02:53:52;2;2;
28647;PMS5003;17137;51.494;-0.262;2023-08-01T02:54:23;2;2;
28647;PMS5003;17137;51.494;-0.262;2023-08-01T02:54:53;2;2;
28647;PMS5003;17137;51.494;-0.262;2023-08-01T02:55:23;2;2;
28647;PMS5003;17137;51.494;-0.262;2023-08-01T02:55:53;2;2;
28647;PMS5003;17137;51.494;-0.262;2023-08-01T02:56:24;2;2;
28647;PMS5003;17137;51.494;-0.262;2023-08-01T02:56:55;2;2;
28647;PMS5003;17137;51.494;-0.262;2023-08-01T02:57:25;2;2;
28647;PMS5003;17137;51.494;-0.262;2023-08-01T02:57:55;2;2;
28647;PMS5003;17137;51.494;-0.262;2023-08-01T02:58:25;6;4;
28647;PMS5003;17137;51.494;-0.262;2023-08-01T02:58:56;6;4;
28647;PMS5003;17137;51.494;-0.262;2023-08-01T02:59:26;6;3;
28647;PMS5003;17137;51.494;-0.262;2023-08-01T02:59:57;6;3;
28647;PMS5003;17137;51.494;-0.262;2023-08-01T03:00:27;6;3;
28647;PMS5003;17137;51.494;-0.262;2023-08-01T03:00:58;7;4;
28647;PMS5003;17137;51.494;-0.262;2023-08-01T03:01:28;7;4;
28647;PMS5003;17137;51.494;-0.262;2023-08-01T03:01:59;7;4;
28647;PMS5003;17137;51.494;-0.262;2023-08-01T03:02:30;6;5;
28647;PMS5003;17137;51.494;-0.262;2023-08-01T03:03:00;6;5;
28647;PMS5003;17137;51.494;-0.262;2023-08-01T03:03:31;5;4;
28647;PMS5003;17137;51.494;-0.262;2023-08-01T03:04:01;5;3;
28647;PMS5003;17137;51.494;-0.262;2023-08-01T03:04:32;5;3;
28647;PMS5003;17137;51.494;-0.262;2023-08-01T03:05:02;6;4;
28647;PMS5003;17137;51.494;-0.262;2023-08-01T03:05:35;6;4;
28647;PMS5003;17137;51.494;-0.262;2023-08-01T03:06:05;6;4;
28647;PMS5003;17137;51.494;-0.262;2023-08-01T03:06:36;2;1;
28647;PMS5003;17137;51.494;-0.262;2023-08-01T03:07:07;2;1;
28647;PMS5003;17137;51.494;-0.262;2023-08-01T03:07:37;2;1;
28647;PMS5003;17137;51.494;-0.262;2023-08-01T03:08:08;2;1;
28647;PMS5003;17137;51.494;-0.262;2023-08-01T03:08:38;2;1;
28647;PMS5003;17137;51.494;-0.262;2023-08-01T03:09:13;2;1;
28647;PMS5003;17137;51.494;-0.262;2023-08-01T03:09:44;2;1;
28647;PMS5003;17137;51.494;-0.262;2023-08-01T03:10:14;2;1;
28647;PMS5003;17137;51.494;-0.262;2023-08-01T03:10:45;2;1;
28647;PMS5003;17137;51.494;-0.262;2023-08-01T03:11:15;2;1;
28647;PMS5003;17137;51.494;-0.262;2023-08-01T03:11:45;2;1;
28647;PMS5003;17137;51.494;-0.262;2023-08-01T03:12:16;2;1;
28647;PMS5003;17137;51.494;-0.262;2023-08-01T03:12:46;1;1;
28647;PMS5003;17137;51.494;-0.262;2023-08-01T03:13:17;1;1;
28647;PMS5003;17137;51.494;-0.262;2023-08-01T03:13:47;1;1;
28647;PMS5003;17137;51.494;-0.262;2023-08-01T03:14:17;1;1;
28647;PMS5003;17137;51.494;-0.262;2023-08-01T03:14:48;1;1;
28647;PMS5003;17137;51.494;-0.262;2023-08-01T03:15:18;2;2;
28647;PMS5003;17137;51.494;-0.262;2023-08-01T03:15:49;2;2;
28647;PMS5003;17137;51.494;-0.262;2023-08-01T03:16:19;2;2;
28647;PMS5003;17137;51.494;-0.262;2023-08-01T03:16:50;2;2;
28647;PMS5003;17137;51.494;-0.262;2023-08-01T03:17:20;2;2;
28647;PMS5003;17137;51.494;-0.262;2023-08-01T03:17:51;1;1;
28647;PMS5003;17137;51.494;-0.262;2023-08-01T03:18:22;1;1;
28647;PMS5003;17137;51.494;-0.262;2023-08-01T03:18:52;1;1;
28647;PMS5003;17137;51.494;-0.262;2023-08-01T03:19:22;1;1;
28647;PMS5003;17137;51.494;-0.262;2023-08-01T03:19:53;1;1;
28647;PMS5003;17137;51.494;-0.262;2023-08-01T03:20:23;1;1;
28647;PMS5003;17137;51.494;-0.262;2023-08-01T03:20:53;1;1;
28647;PMS5003;17137;51.494;-0.262;2023-08-01T03:21:24;1;1;
28647;PMS5003;17137;51.494;-0.262;2023-08-01T03:21:55;1;1;
28647;PMS5003;17137;51.494;-0.262;2023-08-01T03:22:25;1;1;
28647;PMS5003;17137;51.494;-0.262;2023-08-01T03:22:56;0;0;
28647;PMS5003;17137;51.494;-0.262;2023-08-01T03:23:26;0;0;
28647;PMS5003;17137;51.494;-0.262;2023-08-01T03:23:57;0;0;
28647;PMS5003;17137;51.494;-0.262;2023-08-01T03:24:27;0;0;
28647;PMS5003;17137;51.494;-0.262;2023-08-01T03:24:58;0;0;
28647;PMS5003;17137;51.494;-0.262;2023-08-01T03:25:28;0;0;
28647;PMS5003;17137;51.494;-0.262;2023-08-01T03:25:59;0;0;
28647;PMS5003;17137;51.494;-0.262;2023-08-01T03:26:30;0;0;